createdAt,value
2022-12-26T00:01:42.842Z,4.65
2022-12-26T00:04:51.760Z,4.13
2022-12-26T00:07:00.387Z,3.95
2022-12-26T00:09:27.641Z,3.70
2022-12-26T00:11:54.910Z,4.70
2022-12-26T00:14:22.202Z,3.80
2022-12-26T00:16:49.663Z,4.15
2022-12-26T00:19:16.940Z,4.63
2022-12-26T00:21:44.387Z,3.72
2022-12-26T00:24:12.157Z,4.43
2022-12-26T00:26:39.693Z,4.22
2022-12-26T00:29:07.011Z,4.35
2022-12-26T00:31:35.897Z,4.13
2022-12-26T00:34:03.458Z,3.85
2022-12-26T00:36:32.892Z,3.92
2022-12-26T00:39:01.597Z,4.57
2022-12-26T00:41:30.506Z,3.58
2022-12-26T00:43:58.039Z,3.65
2022-12-26T00:46:26.477Z,3.97
2022-12-26T00:48:53.997Z,3.88
2022-12-26T00:51:21.841Z,3.20
2022-12-26T00:53:49.325Z,3.22
2022-12-26T00:56:16.896Z,3.35
2022-12-26T00:58:44.389Z,3.55
2022-12-26T01:01:17.486Z,2.95
2022-12-26T01:03:46.023Z,3.20
2022-12-26T01:06:13.472Z,3.05
2022-12-26T01:08:40.969Z,3.25
2022-12-26T01:11:10.925Z,2.65
2022-12-26T01:13:38.685Z,3.22
2022-12-26T01:16:06.999Z,3.35
2022-12-26T01:18:35.173Z,3.00
2022-12-26T01:21:05.900Z,2.70
2022-12-26T01:23:33.453Z,3.20
2022-12-26T01:26:18.264Z,2.75
2022-12-26T01:28:49.127Z,3.05
2022-12-26T01:31:17.078Z,2.75
2022-12-26T01:33:44.446Z,2.72
2022-12-26T01:36:12.006Z,2.92
2022-12-26T01:38:39.274Z,2.40
2022-12-26T01:41:21.908Z,2.60
2022-12-26T01:43:52.291Z,2.30
2022-12-26T01:46:41.846Z,2.60
2022-12-26T01:49:37.743Z,2.67
2022-12-26T01:52:08.902Z,2.63
2022-12-26T01:54:42.622Z,2.20
2022-12-26T01:57:20.615Z,2.80
2022-12-26T01:59:48.369Z,2.75
2022-12-26T02:02:17.084Z,2.92
2022-12-26T02:05:06.181Z,2.28
2022-12-26T02:07:41.040Z,3.50
2022-12-26T02:10:13.474Z,3.22
2022-12-26T02:12:41.232Z,2.40
2022-12-26T02:15:12.887Z,2.20
2022-12-26T02:17:41.708Z,2.42
2022-12-26T02:20:29.551Z,2.22
2022-12-26T02:23:34.519Z,2.53
2022-12-26T02:26:17.969Z,2.30
2022-12-26T02:29:12.796Z,2.33
2022-12-26T02:31:51.711Z,2.35
2022-12-26T02:34:50.152Z,2.05
2022-12-26T02:37:56.091Z,2.58
2022-12-26T02:40:29.122Z,2.35
2022-12-26T02:43:06.744Z,2.35
2022-12-26T02:45:59.669Z,1.85
2022-12-26T02:48:39.146Z,1.80
2022-12-26T02:51:44.073Z,2.15
2022-12-26T02:54:46.710Z,1.75
2022-12-26T02:57:37.604Z,1.50
2022-12-26T03:00:44.132Z,1.60
2022-12-26T03:03:33.658Z,2.10
2022-12-26T03:06:39.111Z,2.05
2022-12-26T03:09:35.722Z,1.95
2022-12-26T03:12:26.617Z,1.50
2022-12-26T03:15:02.833Z,1.52
2022-12-26T03:17:37.002Z,1.90
2022-12-26T03:20:17.114Z,1.60
2022-12-26T03:22:47.462Z,1.88
2022-12-26T03:25:48.724Z,1.60
2022-12-26T03:28:16.817Z,1.35
2022-12-26T03:30:50.309Z,1.60
2022-12-26T03:33:48.813Z,1.50
2022-12-26T03:36:24.279Z,2.05
2022-12-26T03:39:13.079Z,1.88
2022-12-26T03:42:09.162Z,1.60
2022-12-26T03:44:57.692Z,1.35
2022-12-26T03:47:57.546Z,2.38
2022-12-26T03:50:51.847Z,2.80
2022-12-26T03:53:47.417Z,2.38
2022-12-26T03:56:40.584Z,1.30
2022-12-26T03:59:30.158Z,1.25
2022-12-26T04:02:22.169Z,1.63
2022-12-26T04:05:08.800Z,1.10
2022-12-26T04:08:00.182Z,1.85
2022-12-26T04:10:51.983Z,1.52
2022-12-26T04:13:42.387Z,1.35
2022-12-26T04:17:08.786Z,1.15
2022-12-26T04:19:54.670Z,1.63
2022-12-26T04:22:54.978Z,1.33
2022-12-26T04:28:38.414Z,1.27
2022-12-26T04:31:36.614Z,1.40
2022-12-26T04:34:26.437Z,1.20
2022-12-26T04:37:17.426Z,1.45
2022-12-26T04:40:08.041Z,1.48
2022-12-26T04:42:54.525Z,1.52
2022-12-26T04:45:22.389Z,1.15
2022-12-26T04:48:09.599Z,1.17
2022-12-26T04:50:37.043Z,1.60
2022-12-26T04:53:04.289Z,1.33
2022-12-26T04:55:33.004Z,1.48
2022-12-26T04:58:00.415Z,1.25
2022-12-26T05:00:29.080Z,1.35
2022-12-26T05:03:18.965Z,1.25
2022-12-26T05:06:07.724Z,1.33
2022-12-26T05:08:59.261Z,1.33
2022-12-26T05:11:33.746Z,1.60
2022-12-26T05:14:01.781Z,1.23
2022-12-26T05:16:48.212Z,1.23
2022-12-26T05:19:36.216Z,1.45
2022-12-26T05:22:23.339Z,1.25
2022-12-26T05:25:09.821Z,1.58
2022-12-26T05:27:59.061Z,1.88
2022-12-26T05:30:26.557Z,1.50
2022-12-26T05:33:12.382Z,1.08
2022-12-26T05:35:40.015Z,1.40
2022-12-26T05:38:09.337Z,1.45
2022-12-26T05:40:36.593Z,1.37
2022-12-26T05:43:03.958Z,1.30
2022-12-26T05:45:32.589Z,1.50
2022-12-26T05:48:01.161Z,1.30
2022-12-26T05:50:28.858Z,1.10
2022-12-26T05:52:59.966Z,1.50
2022-12-26T05:55:27.329Z,1.48
2022-12-26T05:57:54.572Z,1.55
2022-12-26T06:00:21.902Z,1.40
2022-12-26T06:02:49.255Z,1.20
2022-12-26T06:05:17.134Z,1.50
2022-12-26T06:07:44.777Z,1.20
2022-12-26T06:10:12.426Z,1.13
2022-12-26T06:12:39.947Z,1.40
2022-12-26T06:15:07.676Z,1.33
2022-12-26T06:17:35.009Z,1.27
2022-12-26T06:20:02.248Z,1.05
2022-12-26T06:22:29.852Z,1.60
2022-12-26T06:24:57.155Z,1.23
2022-12-26T06:27:24.779Z,1.33
2022-12-26T06:29:52.655Z,1.00
2022-12-26T06:32:19.925Z,1.17
2022-12-26T06:34:48.179Z,1.40
2022-12-26T06:37:15.643Z,1.60
2022-12-26T06:39:42.904Z,1.20
2022-12-26T06:42:10.172Z,1.45
2022-12-26T06:44:38.476Z,1.50
2022-12-26T06:47:05.859Z,1.20
2022-12-26T06:49:33.538Z,1.30
2022-12-26T06:52:00.845Z,1.40
2022-12-26T06:54:28.242Z,1.30
2022-12-26T06:56:55.557Z,1.58
2022-12-26T06:59:22.894Z,1.20
2022-12-26T07:01:50.451Z,1.52
2022-12-26T07:04:17.835Z,1.63
2022-12-26T07:06:45.021Z,1.38
2022-12-26T07:09:14.708Z,1.58
2022-12-26T07:11:44.467Z,1.25
2022-12-26T07:14:11.731Z,1.70
2022-12-26T07:16:40.759Z,1.40
2022-12-26T07:19:09.578Z,1.55
2022-12-26T07:21:40.787Z,1.23
2022-12-26T07:24:15.206Z,1.50
2022-12-26T07:26:42.978Z,2.00
2022-12-26T07:29:11.277Z,1.45
2022-12-26T07:31:39.142Z,1.20
2022-12-26T07:34:06.428Z,1.80
2022-12-26T07:36:33.724Z,1.50
2022-12-26T07:39:00.963Z,1.80
2022-12-26T07:41:47.929Z,1.73
2022-12-26T07:44:15.337Z,1.20
2022-12-26T07:46:43.188Z,2.08
2022-12-26T07:49:12.182Z,1.63
2022-12-26T07:51:39.586Z,2.25
2022-12-26T07:54:10.880Z,1.52
2022-12-26T07:56:39.670Z,1.80
2022-12-26T07:59:07.202Z,1.85
2022-12-26T08:01:34.973Z,1.83
2022-12-26T08:04:02.471Z,1.42
2022-12-26T08:06:29.785Z,1.90
2022-12-26T08:08:58.641Z,1.90
2022-12-26T08:11:26.048Z,1.60
2022-12-26T08:13:53.295Z,2.05
2022-12-26T08:16:20.706Z,1.25
2022-12-26T08:18:48.141Z,1.75
2022-12-26T08:21:15.751Z,1.95
2022-12-26T08:23:43.076Z,1.95
2022-12-26T08:26:16.341Z,1.50
2022-12-26T08:28:43.816Z,1.58
2022-12-26T08:31:12.763Z,1.75
2022-12-26T08:33:40.033Z,1.52
2022-12-26T08:36:10.002Z,1.70
2022-12-26T08:38:37.419Z,1.60
2022-12-26T08:41:05.193Z,1.67
2022-12-26T08:44:03.170Z,2.00
2022-12-26T08:46:21.483Z,1.77
2022-12-26T08:48:49.646Z,1.65
2022-12-26T08:51:19.974Z,2.00
2022-12-26T08:53:49.765Z,1.40
2022-12-26T08:56:18.834Z,1.65
2022-12-26T08:58:46.411Z,2.00
2022-12-26T09:01:16.518Z,1.92
2022-12-26T09:06:12.747Z,1.73
2022-12-26T09:08:40.836Z,1.50
2022-12-26T09:11:13.033Z,1.95
2022-12-26T09:13:41.583Z,2.08
2022-12-26T09:16:14.852Z,3.33
2022-12-26T09:18:43.519Z,1.95
2022-12-26T09:21:12.108Z,2.05
2022-12-26T09:23:39.982Z,1.77
2022-12-26T09:26:11.266Z,3.65
2022-12-26T09:28:38.958Z,2.95
2022-12-26T09:31:11.940Z,2.17
2022-12-26T09:33:39.675Z,2.00
2022-12-26T09:36:14.475Z,2.90
2022-12-26T09:38:43.855Z,2.58
2022-12-26T09:41:14.785Z,2.37
2022-12-26T09:46:25.141Z,1.80
2022-12-26T09:48:58.263Z,2.08
2022-12-26T09:51:27.109Z,2.47
2022-12-26T09:53:54.873Z,2.03
2022-12-26T09:59:16.842Z,1.55
2022-12-26T10:01:44.779Z,2.55
2022-12-26T10:04:29.074Z,1.73
2022-12-26T10:07:24.523Z,1.65
2022-12-26T10:10:05.546Z,1.83
2022-12-26T10:12:52.563Z,1.90
2022-12-26T10:15:53.425Z,1.52
2022-12-26T10:18:36.834Z,1.75
2022-12-26T10:21:14.893Z,1.80
2022-12-26T10:23:45.674Z,3.88
2022-12-26T10:26:21.744Z,3.67
2022-12-26T10:28:54.965Z,2.47
2022-12-26T10:31:41.504Z,3.85
2022-12-26T10:34:17.416Z,2.83
2022-12-26T10:36:48.826Z,2.30
2022-12-26T10:39:39.296Z,2.20
2022-12-26T10:42:26.078Z,1.90
2022-12-26T10:44:53.446Z,1.77
2022-12-26T10:47:39.281Z,2.20
2022-12-26T10:50:07.098Z,2.13
2022-12-26T10:52:38.061Z,1.98
2022-12-26T10:55:28.680Z,2.28
2022-12-26T10:57:54.464Z,2.05
2022-12-26T11:00:24.855Z,4.30
2022-12-26T11:03:12.514Z,2.08
2022-12-26T11:08:43.222Z,3.25
2022-12-26T11:11:46.278Z,4.60
2022-12-26T11:14:34.173Z,1.95
2022-12-26T11:17:06.457Z,2.60
2022-12-26T11:19:35.435Z,2.22
2022-12-26T11:22:28.674Z,2.92
2022-12-26T11:25:08.086Z,2.15
2022-12-26T11:27:39.578Z,2.20
2022-12-26T11:30:22.120Z,2.60
2022-12-26T11:33:22.267Z,2.38
2022-12-26T11:36:09.488Z,4.82
2022-12-26T11:38:58.660Z,8.68
2022-12-26T11:41:31.847Z,13.48
2022-12-26T11:44:22.619Z,8.18
2022-12-26T11:46:52.699Z,5.28
2022-12-26T11:49:52.276Z,5.32
2022-12-26T11:52:37.959Z,2.70
2022-12-26T11:55:27.033Z,2.70
2022-12-26T11:58:06.711Z,2.88
2022-12-26T12:00:35.585Z,3.97
2022-12-26T12:03:04.496Z,5.43
2022-12-26T12:05:53.739Z,6.10
2022-12-26T12:08:49.226Z,5.10
2022-12-26T12:11:41.408Z,2.78
2022-12-26T12:14:21.725Z,1.35
2022-12-26T12:19:41.663Z,1.40
2022-12-26T12:22:32.742Z,1.37
2022-12-26T12:25:27.854Z,1.58
2022-12-26T12:28:12.145Z,2.50
2022-12-26T12:30:52.182Z,1.90
2022-12-26T12:36:34.912Z,1.85
2022-12-26T12:39:11.567Z,4.57
2022-12-26T12:41:55.407Z,4.20
2022-12-26T12:44:45.020Z,2.10
2022-12-26T12:47:42.622Z,3.17
2022-12-26T12:50:40.951Z,1.85
2022-12-26T12:53:41.954Z,1.70
2022-12-26T12:56:30.891Z,2.30
2022-12-26T12:59:39.930Z,2.85
2022-12-26T13:02:20.724Z,3.22
2022-12-26T13:04:53.419Z,3.60
2022-12-26T13:07:27.183Z,2.65
2022-12-26T13:09:58.232Z,2.47
2022-12-26T13:12:35.095Z,1.70
2022-12-26T13:15:13.670Z,1.40
2022-12-26T13:17:48.265Z,1.50
2022-12-26T13:20:19.389Z,1.85
2022-12-26T13:23:23.585Z,1.50
2022-12-26T13:26:04.935Z,1.90
2022-12-26T13:28:34.561Z,1.50
2022-12-26T13:31:01.916Z,1.83
2022-12-26T13:33:30.022Z,2.25
2022-12-26T13:35:59.783Z,2.28
2022-12-26T13:38:56.224Z,2.05
2022-12-26T13:41:43.281Z,1.88
2022-12-26T13:44:20.056Z,2.22
2022-12-26T13:46:47.289Z,1.80
2022-12-26T13:49:27.233Z,1.50
2022-12-26T13:52:16.047Z,1.95
2022-12-26T13:54:54.193Z,1.75
2022-12-26T13:57:34.341Z,2.22
2022-12-26T14:00:06.361Z,1.63
2022-12-26T14:03:17.798Z,2.53
2022-12-26T14:06:13.213Z,2.25
2022-12-26T14:09:16.380Z,2.08
2022-12-26T14:11:55.805Z,2.78
2022-12-26T14:15:00.604Z,2.40
2022-12-26T14:17:40.085Z,1.77
2022-12-26T14:20:44.934Z,1.33
2022-12-26T14:23:31.232Z,1.58
2022-12-26T14:26:46.729Z,2.60
2022-12-26T14:29:58.659Z,1.80
2022-12-26T14:32:41.051Z,1.52
2022-12-26T14:35:14.706Z,1.58
2022-12-26T14:38:03.747Z,1.20
2022-12-26T14:40:36.243Z,1.90
2022-12-26T14:43:27.989Z,1.70
2022-12-26T14:45:57.552Z,1.77
2022-12-26T14:48:27.578Z,1.75
2022-12-26T14:51:04.038Z,1.65
2022-12-26T14:53:35.132Z,1.77
2022-12-26T14:56:10.408Z,2.30
2022-12-26T14:59:12.062Z,1.80
2022-12-26T15:01:39.647Z,2.20
2022-12-26T15:04:09.780Z,1.52
2022-12-26T15:06:55.790Z,2.85
2022-12-26T15:09:29.214Z,1.73
2022-12-26T15:12:24.448Z,1.58
2022-12-26T15:15:13.063Z,1.60
2022-12-26T15:18:06.549Z,1.88
2022-12-26T15:20:40.187Z,1.98
2022-12-26T15:23:42.735Z,1.80
2022-12-26T15:26:31.200Z,1.52
2022-12-26T15:29:04.472Z,1.38
2022-12-26T15:31:58.946Z,1.50
2022-12-26T15:34:38.421Z,1.83
2022-12-26T15:37:15.178Z,2.08
2022-12-26T15:40:19.708Z,1.75
2022-12-26T15:43:01.895Z,2.30
2022-12-26T15:45:39.957Z,2.13
2022-12-26T15:48:41.389Z,2.13
2022-12-26T15:51:15.014Z,2.03
2022-12-26T15:54:21.231Z,2.35
2022-12-26T15:57:08.568Z,2.20
2022-12-26T16:00:13.303Z,3.40
2022-12-26T16:02:47.845Z,2.97
2022-12-26T16:05:31.939Z,1.80
2022-12-26T16:08:17.974Z,1.70
2022-12-26T16:10:48.872Z,2.00
2022-12-26T16:13:23.198Z,2.00
2022-12-26T16:15:58.808Z,1.85
2022-12-26T16:18:30.981Z,1.75
2022-12-26T16:21:21.730Z,2.03
2022-12-26T16:23:51.346Z,2.63
2022-12-26T16:26:29.130Z,6.57
2022-12-26T16:28:58.557Z,4.35
2022-12-26T16:31:28.328Z,2.57
2022-12-26T16:33:57.876Z,1.70
2022-12-26T16:36:27.496Z,1.70
2022-12-26T16:38:55.917Z,1.75
2022-12-26T16:41:27.791Z,1.83
2022-12-26T16:43:57.190Z,2.25
2022-12-26T16:46:28.935Z,1.60
2022-12-26T16:48:58.716Z,2.28
2022-12-26T16:51:48.209Z,2.10
2022-12-26T16:54:19.795Z,2.30
2022-12-26T16:57:23.377Z,1.95
2022-12-26T16:59:57.732Z,2.25
2022-12-26T17:02:31.139Z,1.90
2022-12-26T17:05:18.580Z,2.30
2022-12-26T17:07:46.931Z,2.17
2022-12-26T17:10:20.039Z,2.58
2022-12-26T17:12:47.877Z,2.95
2022-12-26T17:15:24.319Z,2.85
2022-12-26T17:17:51.632Z,3.22
2022-12-26T17:20:21.798Z,4.25
2022-12-26T17:25:21.136Z,3.10
2022-12-26T17:28:14.903Z,2.75
2022-12-26T17:30:44.691Z,2.63
2022-12-26T17:33:16.401Z,3.05
2022-12-26T17:38:39.201Z,3.20
2022-12-26T17:41:08.826Z,3.28
2022-12-26T17:43:37.585Z,3.40
2022-12-26T17:46:06.307Z,3.22
2022-12-26T17:48:34.923Z,3.63
2022-12-26T17:51:06.197Z,4.45
2022-12-26T17:53:35.162Z,3.30
2022-12-26T17:56:05.142Z,3.50
2022-12-26T17:58:33.280Z,3.78
2022-12-26T18:01:01.230Z,3.70
2022-12-26T18:03:28.663Z,3.67
2022-12-26T18:05:56.633Z,3.47
2022-12-26T18:08:31.565Z,3.55
2022-12-26T18:11:00.462Z,2.97
2022-12-26T18:13:28.169Z,3.28
2022-12-26T18:15:57.793Z,3.50
2022-12-26T18:18:39.764Z,3.05
2022-12-26T18:21:09.721Z,3.75
2022-12-26T18:23:37.788Z,3.35
2022-12-26T18:26:31.524Z,3.58
2022-12-26T18:28:59.212Z,3.15
2022-12-26T18:31:28.042Z,3.70
2022-12-26T18:33:55.950Z,3.95
2022-12-26T18:36:34.176Z,3.80
2022-12-26T18:39:02.031Z,4.05
2022-12-26T18:41:29.538Z,3.35
2022-12-26T18:43:58.211Z,3.10
2022-12-26T18:46:27.276Z,3.42
2022-12-26T18:48:56.724Z,3.80
2022-12-26T18:51:25.436Z,8.70
2022-12-26T18:53:52.765Z,5.60
2022-12-26T18:56:21.986Z,4.25
2022-12-26T18:58:57.133Z,4.78
2022-12-26T19:01:26.278Z,4.40
2022-12-26T19:03:54.047Z,12.85
2022-12-26T19:06:25.054Z,6.13
2022-12-26T19:08:52.669Z,4.72
2022-12-26T19:11:19.965Z,3.42
2022-12-26T19:13:47.419Z,7.18
2022-12-26T19:16:15.559Z,5.63
2022-12-26T19:18:42.979Z,4.47
2022-12-26T19:21:14.502Z,4.45
2022-12-26T19:23:42.777Z,4.03
2022-12-26T19:26:11.460Z,4.78
2022-12-26T19:28:39.365Z,3.72
2022-12-26T19:31:14.152Z,4.15
2022-12-26T19:33:41.835Z,4.28
2022-12-26T19:36:09.272Z,5.55
2022-12-26T19:38:37.250Z,23.08
2022-12-26T19:41:14.636Z,28.35
2022-12-26T19:43:43.034Z,42.97
2022-12-26T19:46:12.454Z,15.93
2022-12-26T19:48:39.846Z,12.60
2022-12-26T19:51:10.059Z,11.70
2022-12-26T19:53:40.263Z,9.93
2022-12-26T19:58:38.596Z,8.65
2022-12-26T20:01:11.144Z,6.50
2022-12-26T20:03:39.892Z,5.78
2022-12-26T20:06:13.196Z,6.13
2022-12-26T20:08:41.064Z,5.30
2022-12-26T20:11:12.873Z,5.85
2022-12-26T20:13:42.063Z,4.95
2022-12-26T20:16:45.718Z,4.80
2022-12-26T20:19:02.709Z,4.68
2022-12-26T20:21:30.018Z,4.35
2022-12-26T20:24:01.280Z,3.50
2022-12-26T20:26:29.183Z,4.32
2022-12-26T20:28:58.459Z,4.57
2022-12-26T20:31:25.710Z,4.82
2022-12-26T20:33:53.422Z,5.00
2022-12-26T20:36:23.542Z,4.30
2022-12-26T20:38:55.825Z,4.80
2022-12-26T20:41:23.729Z,4.40
2022-12-26T20:43:52.028Z,4.50
2022-12-26T20:46:22.179Z,10.10
2022-12-26T20:51:31.746Z,5.00
2022-12-26T20:54:04.550Z,5.53
2022-12-26T20:56:31.960Z,8.07
2022-12-26T20:58:59.751Z,4.88
2022-12-26T21:01:28.297Z,4.38
2022-12-26T21:03:56.701Z,3.70
2022-12-26T21:06:30.152Z,4.05
2022-12-26T21:08:57.875Z,4.13
2022-12-26T21:11:38.116Z,3.90
2022-12-26T21:14:08.544Z,3.97
2022-12-26T21:16:38.772Z,3.95
2022-12-26T21:21:44.386Z,5.47
2022-12-26T21:24:23.890Z,4.15
2022-12-26T21:26:51.430Z,4.43
2022-12-26T21:29:23.250Z,4.50
2022-12-26T21:31:51.076Z,4.10
2022-12-26T21:34:20.135Z,3.92
2022-12-26T21:37:07.828Z,4.13
2022-12-26T21:39:36.289Z,4.18
2022-12-26T21:42:05.169Z,4.38
2022-12-26T21:44:32.891Z,4.40
2022-12-26T21:47:00.269Z,14.73
2022-12-26T21:49:27.922Z,21.60
2022-12-26T21:51:55.504Z,7.47
2022-12-26T21:54:48.369Z,5.03
2022-12-26T21:57:17.624Z,4.15
2022-12-26T21:59:57.742Z,4.43
2022-12-26T22:02:58.619Z,4.13
2022-12-26T22:05:28.263Z,3.95
2022-12-26T22:07:57.768Z,3.72
2022-12-26T22:10:44.901Z,3.67
2022-12-26T22:13:12.322Z,2.90
2022-12-26T22:16:02.808Z,3.35
2022-12-26T22:18:32.051Z,3.20
2022-12-26T22:21:04.517Z,3.77
2022-12-26T22:23:31.967Z,3.75
2022-12-26T22:25:59.425Z,3.47
2022-12-26T22:28:27.028Z,3.33
2022-12-26T22:30:54.473Z,3.42
2022-12-26T22:33:21.875Z,3.05
2022-12-26T22:35:49.141Z,3.08
2022-12-26T22:38:16.836Z,3.33
2022-12-26T22:40:58.085Z,3.60
2022-12-26T22:43:25.841Z,3.30
2022-12-26T22:45:53.432Z,3.40
2022-12-26T22:48:20.846Z,2.75
2022-12-26T22:50:51.083Z,2.60
2022-12-26T22:53:18.636Z,3.33
2022-12-26T22:55:48.566Z,3.45
2022-12-26T22:58:17.295Z,3.00
2022-12-26T23:00:45.207Z,3.00
2022-12-26T23:03:13.720Z,3.30
2022-12-26T23:05:41.619Z,3.25
2022-12-26T23:08:15.009Z,4.30
2022-12-26T23:10:42.808Z,10.35
2022-12-26T23:13:14.274Z,4.57
2022-12-26T23:15:51.250Z,3.20
2022-12-26T23:18:49.795Z,3.40
2022-12-26T23:21:44.952Z,3.28
2022-12-26T23:24:26.204Z,2.95
2022-12-26T23:26:56.193Z,2.55
2022-12-26T23:29:43.244Z,2.72
2022-12-26T23:32:10.876Z,3.17
2022-12-26T23:34:38.239Z,2.72
2022-12-26T23:37:05.584Z,2.47
2022-12-26T23:39:32.859Z,2.97
2022-12-26T23:42:00.115Z,3.55
2022-12-26T23:44:27.443Z,3.13
2022-12-26T23:46:54.785Z,3.20
2022-12-26T23:49:22.188Z,4.53
2022-12-26T23:51:49.400Z,3.65
2022-12-26T23:54:16.725Z,8.52
2022-12-26T23:56:44.038Z,3.53
2022-12-26T23:59:11.255Z,5.07
